sensor_id;sensor_type;location;lat;lon;timestamp;P1;durP1;ratioP1;P2;durP2;ratioP2
46489;SDS011;32204;49.160;8.580;2023-04-09T00:00:37;11.18;;;7.40;;
46489;SDS011;32204;49.160;8.580;2023-04-09T00:03:03;10.40;;;7.68;;
46489;SDS011;32204;49.160;8.580;2023-04-09T00:05:29;9.73;;;7.65;;
46489;SDS011;32204;49.160;8.580;2023-04-09T00:07:55;9.27;;;7.10;;
46489;SDS011;32204;49.160;8.580;2023-04-09T00:10:21;9.95;;;7.55;;
46489;SDS011;32204;49.160;8.580;2023-04-09T00:12:46;11.45;;;7.53;;
46489;SDS011;32204;49.160;8.580;2023-04-09T00:15:12;10.50;;;7.90;;
46489;SDS011;32204;49.160;8.580;2023-04-09T00:17:38;11.10;;;8.25;;
46489;SDS011;32204;49.160;8.580;2023-04-09T00:20:03;11.98;;;8.90;;
46489;SDS011;32204;49.160;8.580;2023-04-09T00:22:29;10.60;;;8.02;;
46489;SDS011;32204;49.160;8.580;2023-04-09T00:24:55;10.80;;;7.90;;
46489;SDS011;32204;49.160;8.580;2023-04-09T00:27:21;11.65;;;8.35;;
46489;SDS011;32204;49.160;8.580;2023-04-09T00:29:47;12.30;;;8.43;;
46489;SDS011;32204;49.160;8.580;2023-04-09T00:32:12;11.85;;;9.05;;
46489;SDS011;32204;49.160;8.580;2023-04-09T00:34:38;11.93;;;8.90;;
46489;SDS011;32204;49.160;8.580;2023-04-09T00:37:04;12.18;;;8.77;;
46489;SDS011;32204;49.160;8.580;2023-04-09T00:39:30;12.90;;;8.95;;
46489;SDS011;32204;49.160;8.580;2023-04-09T00:41:56;12.98;;;8.57;;
46489;SDS011;32204;49.160;8.580;2023-04-09T00:44:23;11.32;;;8.25;;
46489;SDS011;32204;49.160;8.580;2023-04-09T00:46:49;13.98;;;9.23;;
46489;SDS011;32204;49.160;8.580;2023-04-09T00:49:15;11.98;;;8.68;;
46489;SDS011;32204;49.160;8.580;2023-04-09T00:51:40;12.60;;;8.85;;
46489;SDS011;32204;49.160;8.580;2023-04-09T00:54:07;11.40;;;8.85;;
46489;SDS011;32204;49.160;8.580;2023-04-09T00:56:32;12.77;;;9.25;;
46489;SDS011;32204;49.160;8.580;2023-04-09T00:58:59;13.75;;;9.02;;
46489;SDS011;32204;49.160;8.580;2023-04-09T01:01:25;13.45;;;9.15;;
46489;SDS011;32204;49.160;8.580;2023-04-09T01:03:50;11.23;;;8.27;;
46489;SDS011;32204;49.160;8.580;2023-04-09T01:06:18;13.55;;;9.65;;
46489;SDS011;32204;49.160;8.580;2023-04-09T01:14:05;13.15;;;9.55;;
46489;SDS011;32204;49.160;8.580;2023-04-09T01:16:33;13.50;;;9.25;;
46489;SDS011;32204;49.160;8.580;2023-04-09T01:19:03;12.20;;;9.07;;
46489;SDS011;32204;49.160;8.580;2023-04-09T01:21:47;11.70;;;9.35;;
46489;SDS011;32204;49.160;8.580;2023-04-09T01:27:05;14.45;;;10.30;;
46489;SDS011;32204;49.160;8.580;2023-04-09T01:29:32;13.07;;;9.32;;
46489;SDS011;32204;49.160;8.580;2023-04-09T01:32:01;15.35;;;10.38;;
46489;SDS011;32204;49.160;8.580;2023-04-09T01:34:28;13.98;;;9.75;;
46489;SDS011;32204;49.160;8.580;2023-04-09T01:36:55;15.95;;;9.52;;
46489;SDS011;32204;49.160;8.580;2023-04-09T01:39:23;19.50;;;10.25;;
46489;SDS011;32204;49.160;8.580;2023-04-09T01:41:50;14.05;;;10.07;;
46489;SDS011;32204;49.160;8.580;2023-04-09T01:44:17;14.65;;;9.82;;
46489;SDS011;32204;49.160;8.580;2023-04-09T01:46:47;15.88;;;9.55;;
46489;SDS011;32204;49.160;8.580;2023-04-09T01:49:14;13.05;;;9.00;;
46489;SDS011;32204;49.160;8.580;2023-04-09T01:51:41;12.68;;;9.35;;
46489;SDS011;32204;49.160;8.580;2023-04-09T01:54:07;15.93;;;10.35;;
46489;SDS011;32204;49.160;8.580;2023-04-09T01:56:43;15.60;;;10.15;;
46489;SDS011;32204;49.160;8.580;2023-04-09T01:59:09;14.65;;;10.75;;
46489;SDS011;32204;49.160;8.580;2023-04-09T02:04:23;15.32;;;9.55;;
46489;SDS011;32204;49.160;8.580;2023-04-09T02:06:53;14.57;;;10.40;;
46489;SDS011;32204;49.160;8.580;2023-04-09T02:09:29;15.43;;;10.05;;
46489;SDS011;32204;49.160;8.580;2023-04-09T02:11:57;13.90;;;9.77;;
46489;SDS011;32204;49.160;8.580;2023-04-09T02:14:27;15.20;;;10.55;;
46489;SDS011;32204;49.160;8.580;2023-04-09T02:16:54;17.45;;;10.43;;
46489;SDS011;32204;49.160;8.580;2023-04-09T02:19:20;14.55;;;10.48;;
46489;SDS011;32204;49.160;8.580;2023-04-09T02:21:46;14.55;;;10.10;;
46489;SDS011;32204;49.160;8.580;2023-04-09T02:24:11;15.75;;;10.20;;
46489;SDS011;32204;49.160;8.580;2023-04-09T02:26:37;11.98;;;9.48;;
46489;SDS011;32204;49.160;8.580;2023-04-09T02:29:02;15.93;;;10.98;;
46489;SDS011;32204;49.160;8.580;2023-04-09T02:31:28;14.38;;;9.57;;
46489;SDS011;32204;49.160;8.580;2023-04-09T02:33:53;14.40;;;9.27;;
46489;SDS011;32204;49.160;8.580;2023-04-09T02:36:19;14.15;;;10.10;;
46489;SDS011;32204;49.160;8.580;2023-04-09T02:38:45;15.32;;;9.82;;
46489;SDS011;32204;49.160;8.580;2023-04-09T02:41:11;14.88;;;11.05;;
46489;SDS011;32204;49.160;8.580;2023-04-09T02:43:37;14.90;;;10.13;;
46489;SDS011;32204;49.160;8.580;2023-04-09T02:46:02;15.07;;;10.98;;
46489;SDS011;32204;49.160;8.580;2023-04-09T02:48:28;13.77;;;9.85;;
46489;SDS011;32204;49.160;8.580;2023-04-09T02:50:53;12.80;;;9.82;;
46489;SDS011;32204;49.160;8.580;2023-04-09T02:53:19;14.32;;;10.25;;
46489;SDS011;32204;49.160;8.580;2023-04-09T02:55:48;16.38;;;10.63;;
46489;SDS011;32204;49.160;8.580;2023-04-09T02:58:13;14.38;;;9.55;;
46489;SDS011;32204;49.160;8.580;2023-04-09T03:00:39;16.40;;;9.95;;
46489;SDS011;32204;49.160;8.580;2023-04-09T03:03:05;15.13;;;9.88;;
46489;SDS011;32204;49.160;8.580;2023-04-09T03:05:30;15.98;;;10.60;;
46489;SDS011;32204;49.160;8.580;2023-04-09T03:07:56;13.27;;;9.85;;
46489;SDS011;32204;49.160;8.580;2023-04-09T03:10:21;14.75;;;10.10;;
46489;SDS011;32204;49.160;8.580;2023-04-09T03:12:47;17.50;;;11.18;;
46489;SDS011;32204;49.160;8.580;2023-04-09T03:15:13;14.07;;;9.88;;
46489;SDS011;32204;49.160;8.580;2023-04-09T03:17:38;16.67;;;10.85;;
46489;SDS011;32204;49.160;8.580;2023-04-09T03:20:07;18.42;;;10.90;;
46489;SDS011;32204;49.160;8.580;2023-04-09T03:22:36;17.67;;;11.35;;
46489;SDS011;32204;49.160;8.580;2023-04-09T03:25:02;15.82;;;10.80;;
46489;SDS011;32204;49.160;8.580;2023-04-09T03:27:28;15.45;;;11.10;;
46489;SDS011;32204;49.160;8.580;2023-04-09T03:29:54;14.73;;;10.68;;
46489;SDS011;32204;49.160;8.580;2023-04-09T03:32:20;15.27;;;10.30;;
46489;SDS011;32204;49.160;8.580;2023-04-09T03:34:46;17.38;;;11.60;;
46489;SDS011;32204;49.160;8.580;2023-04-09T03:37:11;18.65;;;11.93;;
46489;SDS011;32204;49.160;8.580;2023-04-09T03:39:37;13.55;;;10.02;;
46489;SDS011;32204;49.160;8.580;2023-04-09T03:42:02;16.30;;;11.98;;
46489;SDS011;32204;49.160;8.580;2023-04-09T03:44:28;17.23;;;11.25;;
46489;SDS011;32204;49.160;8.580;2023-04-09T03:46:53;19.40;;;11.95;;
46489;SDS011;32204;49.160;8.580;2023-04-09T03:49:19;15.45;;;11.57;;
46489;SDS011;32204;49.160;8.580;2023-04-09T03:51:45;17.42;;;11.52;;
46489;SDS011;32204;49.160;8.580;2023-04-09T03:54:10;17.15;;;11.70;;
46489;SDS011;32204;49.160;8.580;2023-04-09T03:56:37;18.83;;;12.50;;
46489;SDS011;32204;49.160;8.580;2023-04-09T03:59:03;15.90;;;11.20;;
46489;SDS011;32204;49.160;8.580;2023-04-09T04:01:28;17.45;;;11.85;;
46489;SDS011;32204;49.160;8.580;2023-04-09T04:03:54;19.20;;;12.82;;
46489;SDS011;32204;49.160;8.580;2023-04-09T04:06:19;18.55;;;12.20;;
46489;SDS011;32204;49.160;8.580;2023-04-09T04:08:45;19.05;;;12.25;;
46489;SDS011;32204;49.160;8.580;2023-04-09T04:11:11;18.98;;;11.85;;
46489;SDS011;32204;49.160;8.580;2023-04-09T04:13:36;17.98;;;12.13;;
46489;SDS011;32204;49.160;8.580;2023-04-09T04:16:05;16.55;;;11.07;;
46489;SDS011;32204;49.160;8.580;2023-04-09T04:18:33;17.75;;;12.48;;
46489;SDS011;32204;49.160;8.580;2023-04-09T04:20:59;18.38;;;12.15;;
46489;SDS011;32204;49.160;8.580;2023-04-09T04:23:24;21.13;;;13.52;;
46489;SDS011;32204;49.160;8.580;2023-04-09T04:25:50;20.73;;;12.95;;
46489;SDS011;32204;49.160;8.580;2023-04-09T04:28:17;20.80;;;12.93;;
46489;SDS011;32204;49.160;8.580;2023-04-09T04:30:42;21.20;;;13.45;;
46489;SDS011;32204;49.160;8.580;2023-04-09T04:33:08;17.70;;;12.63;;
46489;SDS011;32204;49.160;8.580;2023-04-09T04:35:34;20.88;;;13.70;;
46489;SDS011;32204;49.160;8.580;2023-04-09T04:38:00;17.83;;;12.70;;
46489;SDS011;32204;49.160;8.580;2023-04-09T04:40:26;21.90;;;13.75;;
46489;SDS011;32204;49.160;8.580;2023-04-09T04:42:51;18.65;;;12.43;;
46489;SDS011;32204;49.160;8.580;2023-04-09T04:45:17;18.98;;;13.18;;
46489;SDS011;32204;49.160;8.580;2023-04-09T04:47:42;21.27;;;13.82;;
46489;SDS011;32204;49.160;8.580;2023-04-09T04:50:08;19.33;;;12.52;;
46489;SDS011;32204;49.160;8.580;2023-04-09T04:52:35;21.20;;;14.20;;
46489;SDS011;32204;49.160;8.580;2023-04-09T04:55:00;23.02;;;14.85;;
46489;SDS011;32204;49.160;8.580;2023-04-09T04:57:26;20.15;;;13.55;;
46489;SDS011;32204;49.160;8.580;2023-04-09T04:59:52;25.30;;;15.23;;
46489;SDS011;32204;49.160;8.580;2023-04-09T05:02:17;22.05;;;14.80;;
46489;SDS011;32204;49.160;8.580;2023-04-09T05:04:43;23.10;;;14.70;;
46489;SDS011;32204;49.160;8.580;2023-04-09T05:07:09;19.48;;;13.30;;
46489;SDS011;32204;49.160;8.580;2023-04-09T05:09:34;21.20;;;13.80;;
46489;SDS011;32204;49.160;8.580;2023-04-09T05:12:00;18.27;;;12.27;;
46489;SDS011;32204;49.160;8.580;2023-04-09T05:14:26;19.17;;;13.20;;
46489;SDS011;32204;49.160;8.580;2023-04-09T05:16:52;21.73;;;13.57;;
46489;SDS011;32204;49.160;8.580;2023-04-09T05:19:17;20.67;;;13.88;;
46489;SDS011;32204;49.160;8.580;2023-04-09T05:21:43;19.48;;;13.52;;
46489;SDS011;32204;49.160;8.580;2023-04-09T05:24:08;23.70;;;14.63;;
46489;SDS011;32204;49.160;8.580;2023-04-09T05:26:34;22.55;;;14.52;;
46489;SDS011;32204;49.160;8.580;2023-04-09T05:29:00;23.25;;;14.60;;
46489;SDS011;32204;49.160;8.580;2023-04-09T05:31:25;18.52;;;13.32;;
46489;SDS011;32204;49.160;8.580;2023-04-09T05:33:51;22.08;;;13.73;;
46489;SDS011;32204;49.160;8.580;2023-04-09T05:36:17;22.33;;;13.85;;
46489;SDS011;32204;49.160;8.580;2023-04-09T05:38:43;19.05;;;13.32;;
46489;SDS011;32204;49.160;8.580;2023-04-09T05:41:10;22.27;;;13.97;;
46489;SDS011;32204;49.160;8.580;2023-04-09T05:43:36;21.70;;;14.98;;
46489;SDS011;32204;49.160;8.580;2023-04-09T05:46:02;22.75;;;14.90;;
46489;SDS011;32204;49.160;8.580;2023-04-09T05:48:28;21.17;;;13.77;;
46489;SDS011;32204;49.160;8.580;2023-04-09T05:50:53;21.45;;;14.23;;
46489;SDS011;32204;49.160;8.580;2023-04-09T05:53:19;21.23;;;14.32;;
46489;SDS011;32204;49.160;8.580;2023-04-09T05:55:45;22.30;;;14.73;;
46489;SDS011;32204;49.160;8.580;2023-04-09T05:58:13;21.73;;;14.15;;
46489;SDS011;32204;49.160;8.580;2023-04-09T06:00:40;23.00;;;14.65;;
46489;SDS011;32204;49.160;8.580;2023-04-09T06:03:07;24.23;;;15.95;;
46489;SDS011;32204;49.160;8.580;2023-04-09T06:05:33;22.33;;;15.55;;
46489;SDS011;32204;49.160;8.580;2023-04-09T06:07:58;22.40;;;15.00;;
46489;SDS011;32204;49.160;8.580;2023-04-09T06:10:24;23.33;;;14.50;;
46489;SDS011;32204;49.160;8.580;2023-04-09T06:12:50;22.90;;;14.93;;
46489;SDS011;32204;49.160;8.580;2023-04-09T06:15:15;21.85;;;14.75;;
46489;SDS011;32204;49.160;8.580;2023-04-09T06:17:42;20.23;;;13.57;;
46489;SDS011;32204;49.160;8.580;2023-04-09T06:20:08;22.92;;;14.63;;
46489;SDS011;32204;49.160;8.580;2023-04-09T06:22:35;20.48;;;13.75;;
46489;SDS011;32204;49.160;8.580;2023-04-09T06:25:01;20.83;;;14.57;;
46489;SDS011;32204;49.160;8.580;2023-04-09T06:27:26;23.10;;;16.30;;
46489;SDS011;32204;49.160;8.580;2023-04-09T06:29:52;22.40;;;14.38;;
46489;SDS011;32204;49.160;8.580;2023-04-09T06:32:17;20.20;;;14.15;;
46489;SDS011;32204;49.160;8.580;2023-04-09T06:34:43;22.27;;;14.85;;
46489;SDS011;32204;49.160;8.580;2023-04-09T06:37:09;22.30;;;14.90;;
46489;SDS011;32204;49.160;8.580;2023-04-09T06:39:35;22.17;;;14.88;;
46489;SDS011;32204;49.160;8.580;2023-04-09T06:42:00;20.05;;;14.55;;
46489;SDS011;32204;49.160;8.580;2023-04-09T06:44:27;21.45;;;14.23;;
46489;SDS011;32204;49.160;8.580;2023-04-09T06:46:54;23.15;;;15.88;;
46489;SDS011;32204;49.160;8.580;2023-04-09T06:49:20;20.40;;;15.40;;
46489;SDS011;32204;49.160;8.580;2023-04-09T06:51:46;23.65;;;15.38;;
46489;SDS011;32204;49.160;8.580;2023-04-09T06:54:11;24.80;;;16.45;;
46489;SDS011;32204;49.160;8.580;2023-04-09T06:56:37;22.73;;;15.27;;
46489;SDS011;32204;49.160;8.580;2023-04-09T06:59:03;19.98;;;14.77;;
46489;SDS011;32204;49.160;8.580;2023-04-09T07:01:28;22.35;;;15.35;;
46489;SDS011;32204;49.160;8.580;2023-04-09T07:03:54;22.13;;;15.27;;
46489;SDS011;32204;49.160;8.580;2023-04-09T07:06:19;22.33;;;15.93;;
46489;SDS011;32204;49.160;8.580;2023-04-09T07:08:45;23.00;;;15.52;;
46489;SDS011;32204;49.160;8.580;2023-04-09T07:11:11;21.10;;;15.30;;
46489;SDS011;32204;49.160;8.580;2023-04-09T07:13:36;20.00;;;15.70;;
46489;SDS011;32204;49.160;8.580;2023-04-09T07:16:02;20.63;;;14.85;;
46489;SDS011;32204;49.160;8.580;2023-04-09T07:18:28;21.50;;;14.88;;
46489;SDS011;32204;49.160;8.580;2023-04-09T07:20:55;22.10;;;16.13;;
46489;SDS011;32204;49.160;8.580;2023-04-09T07:23:20;22.20;;;16.02;;
46489;SDS011;32204;49.160;8.580;2023-04-09T07:25:46;23.10;;;16.80;;
46489;SDS011;32204;49.160;8.580;2023-04-09T07:28:12;23.88;;;16.52;;
46489;SDS011;32204;49.160;8.580;2023-04-09T07:30:38;22.52;;;15.60;;
46489;SDS011;32204;49.160;8.580;2023-04-09T07:33:05;23.25;;;16.20;;
46489;SDS011;32204;49.160;8.580;2023-04-09T07:35:30;22.50;;;16.30;;
46489;SDS011;32204;49.160;8.580;2023-04-09T07:37:57;24.23;;;15.90;;
46489;SDS011;32204;49.160;8.580;2023-04-09T07:40:22;25.95;;;16.73;;
46489;SDS011;32204;49.160;8.580;2023-04-09T07:42:48;22.98;;;15.15;;
46489;SDS011;32204;49.160;8.580;2023-04-09T07:45:14;21.20;;;15.43;;
46489;SDS011;32204;49.160;8.580;2023-04-09T07:47:41;22.05;;;14.38;;
46489;SDS011;32204;49.160;8.580;2023-04-09T07:50:07;18.88;;;14.07;;
46489;SDS011;32204;49.160;8.580;2023-04-09T07:52:33;22.38;;;15.57;;
46489;SDS011;32204;49.160;8.580;2023-04-09T07:54:58;20.67;;;14.45;;
46489;SDS011;32204;49.160;8.580;2023-04-09T07:57:24;19.30;;;13.82;;
46489;SDS011;32204;49.160;8.580;2023-04-09T07:59:51;20.80;;;15.65;;
46489;SDS011;32204;49.160;8.580;2023-04-09T08:02:17;20.35;;;13.77;;
46489;SDS011;32204;49.160;8.580;2023-04-09T08:04:43;20.02;;;14.88;;
46489;SDS011;32204;49.160;8.580;2023-04-09T08:07:08;20.30;;;14.73;;
46489;SDS011;32204;49.160;8.580;2023-04-09T08:09:34;17.70;;;13.88;;
46489;SDS011;32204;49.160;8.580;2023-04-09T08:12:00;19.58;;;14.38;;
46489;SDS011;32204;49.160;8.580;2023-04-09T08:14:26;16.60;;;13.35;;
46489;SDS011;32204;49.160;8.580;2023-04-09T08:16:51;18.13;;;14.35;;
46489;SDS011;32204;49.160;8.580;2023-04-09T08:19:17;19.58;;;15.32;;
46489;SDS011;32204;49.160;8.580;2023-04-09T08:21:44;17.15;;;14.40;;
46489;SDS011;32204;49.160;8.580;2023-04-09T08:24:12;19.08;;;14.82;;
46489;SDS011;32204;49.160;8.580;2023-04-09T08:26:38;16.85;;;13.68;;
46489;SDS011;32204;49.160;8.580;2023-04-09T08:29:05;19.73;;;15.82;;
46489;SDS011;32204;49.160;8.580;2023-04-09T08:31:31;16.90;;;13.77;;
46489;SDS011;32204;49.160;8.580;2023-04-09T08:33:57;17.80;;;15.18;;
46489;SDS011;32204;49.160;8.580;2023-04-09T08:36:23;17.65;;;14.25;;
46489;SDS011;32204;49.160;8.580;2023-04-09T08:38:50;17.55;;;12.80;;
46489;SDS011;32204;49.160;8.580;2023-04-09T08:41:21;16.65;;;13.13;;
46489;SDS011;32204;49.160;8.580;2023-04-09T08:43:48;15.85;;;13.27;;
46489;SDS011;32204;49.160;8.580;2023-04-09T08:46:16;16.60;;;12.73;;
46489;SDS011;32204;49.160;8.580;2023-04-09T08:48:45;20.00;;;13.45;;
46489;SDS011;32204;49.160;8.580;2023-04-09T08:51:15;15.10;;;13.02;;
46489;SDS011;32204;49.160;8.580;2023-04-09T08:53:54;16.85;;;13.68;;
46489;SDS011;32204;49.160;8.580;2023-04-09T08:56:22;21.38;;;14.73;;
46489;SDS011;32204;49.160;8.580;2023-04-09T08:58:48;17.15;;;13.40;;
46489;SDS011;32204;49.160;8.580;2023-04-09T09:03:53;9.30;;;8.15;;
46489;SDS011;32204;49.160;8.580;2023-04-09T09:06:25;11.15;;;9.98;;
46489;SDS011;32204;49.160;8.580;2023-04-09T09:11:30;13.48;;;12.05;;
46489;SDS011;32204;49.160;8.580;2023-04-09T09:13:57;12.70;;;11.20;;
46489;SDS011;32204;49.160;8.580;2023-04-09T09:16:24;14.15;;;11.82;;
46489;SDS011;32204;49.160;8.580;2023-04-09T09:18:50;15.20;;;13.23;;
46489;SDS011;32204;49.160;8.580;2023-04-09T09:21:16;12.80;;;11.30;;
46489;SDS011;32204;49.160;8.580;2023-04-09T09:23:43;12.55;;;10.85;;
46489;SDS011;32204;49.160;8.580;2023-04-09T09:26:31;13.43;;;10.95;;
46489;SDS011;32204;49.160;8.580;2023-04-09T09:28:56;16.55;;;12.43;;
46489;SDS011;32204;49.160;8.580;2023-04-09T09:31:25;12.32;;;11.00;;
46489;SDS011;32204;49.160;8.580;2023-04-09T09:33:51;12.98;;;10.95;;
46489;SDS011;32204;49.160;8.580;2023-04-09T09:36:38;11.43;;;9.75;;
46489;SDS011;32204;49.160;8.580;2023-04-09T09:39:03;11.48;;;9.80;;
46489;SDS011;32204;49.160;8.580;2023-04-09T09:41:33;11.23;;;9.35;;
46489;SDS011;32204;49.160;8.580;2023-04-09T09:44:00;10.07;;;8.95;;
46489;SDS011;32204;49.160;8.580;2023-04-09T09:46:27;10.57;;;8.48;;
46489;SDS011;32204;49.160;8.580;2023-04-09T09:48:58;10.75;;;9.35;;
46489;SDS011;32204;49.160;8.580;2023-04-09T09:51:24;11.98;;;9.50;;
46489;SDS011;32204;49.160;8.580;2023-04-09T09:53:54;11.35;;;9.50;;
46489;SDS011;32204;49.160;8.580;2023-04-09T09:56:21;11.85;;;9.30;;
46489;SDS011;32204;49.160;8.580;2023-04-09T09:58:55;9.90;;;8.82;;
46489;SDS011;32204;49.160;8.580;2023-04-09T10:01:25;11.05;;;9.00;;
46489;SDS011;32204;49.160;8.580;2023-04-09T10:03:52;10.13;;;8.63;;
46489;SDS011;32204;49.160;8.580;2023-04-09T10:06:20;11.88;;;9.35;;
46489;SDS011;32204;49.160;8.580;2023-04-09T10:08:47;10.32;;;9.07;;
46489;SDS011;32204;49.160;8.580;2023-04-09T10:11:14;9.20;;;7.95;;
46489;SDS011;32204;49.160;8.580;2023-04-09T10:13:43;11.25;;;8.77;;
46489;SDS011;32204;49.160;8.580;2023-04-09T10:16:14;9.50;;;8.35;;
46489;SDS011;32204;49.160;8.580;2023-04-09T10:18:41;9.20;;;7.93;;
46489;SDS011;32204;49.160;8.580;2023-04-09T10:23:40;27.20;;;24.27;;
46489;SDS011;32204;49.160;8.580;2023-04-09T10:26:08;10.38;;;8.95;;
46489;SDS011;32204;49.160;8.580;2023-04-09T10:28:35;7.80;;;7.00;;
46489;SDS011;32204;49.160;8.580;2023-04-09T10:31:03;8.70;;;6.88;;
46489;SDS011;32204;49.160;8.580;2023-04-09T10:33:30;8.50;;;7.53;;
46489;SDS011;32204;49.160;8.580;2023-04-09T10:35:59;10.32;;;7.97;;
46489;SDS011;32204;49.160;8.580;2023-04-09T10:38:36;8.73;;;6.65;;
46489;SDS011;32204;49.160;8.580;2023-04-09T10:41:06;10.50;;;8.15;;
46489;SDS011;32204;49.160;8.580;2023-04-09T10:43:34;8.45;;;7.03;;
46489;SDS011;32204;49.160;8.580;2023-04-09T10:46:00;7.60;;;6.82;;
46489;SDS011;32204;49.160;8.580;2023-04-09T10:48:31;9.80;;;7.75;;
46489;SDS011;32204;49.160;8.580;2023-04-09T10:50:58;8.50;;;6.93;;
46489;SDS011;32204;49.160;8.580;2023-04-09T10:53:29;9.13;;;7.55;;
46489;SDS011;32204;49.160;8.580;2023-04-09T10:55:56;12.48;;;10.32;;
46489;SDS011;32204;49.160;8.580;2023-04-09T10:58:22;9.60;;;7.97;;
46489;SDS011;32204;49.160;8.580;2023-04-09T11:00:48;8.60;;;7.53;;
46489;SDS011;32204;49.160;8.580;2023-04-09T11:03:21;9.18;;;7.93;;
46489;SDS011;32204;49.160;8.580;2023-04-09T11:08:33;8.48;;;6.97;;
46489;SDS011;32204;49.160;8.580;2023-04-09T11:10:59;8.93;;;6.68;;
46489;SDS011;32204;49.160;8.580;2023-04-09T11:13:25;7.95;;;7.05;;
46489;SDS011;32204;49.160;8.580;2023-04-09T11:15:52;7.43;;;6.57;;
46489;SDS011;32204;49.160;8.580;2023-04-09T11:18:22;9.75;;;7.65;;
46489;SDS011;32204;49.160;8.580;2023-04-09T11:20:52;10.50;;;8.43;;
46489;SDS011;32204;49.160;8.580;2023-04-09T11:23:19;11.20;;;8.23;;
46489;SDS011;32204;49.160;8.580;2023-04-09T11:25:48;10.23;;;7.60;;
46489;SDS011;32204;49.160;8.580;2023-04-09T11:28:15;10.02;;;8.88;;
46489;SDS011;32204;49.160;8.580;2023-04-09T11:30:41;9.68;;;8.68;;
46489;SDS011;32204;49.160;8.580;2023-04-09T11:33:08;10.60;;;8.98;;
46489;SDS011;32204;49.160;8.580;2023-04-09T11:35:34;12.50;;;9.07;;
46489;SDS011;32204;49.160;8.580;2023-04-09T11:38:04;9.27;;;7.60;;
46489;SDS011;32204;49.160;8.580;2023-04-09T11:40:34;9.48;;;8.00;;
46489;SDS011;32204;49.160;8.580;2023-04-09T11:43:00;8.52;;;7.47;;
46489;SDS011;32204;49.160;8.580;2023-04-09T11:45:27;8.55;;;7.03;;
46489;SDS011;32204;49.160;8.580;2023-04-09T11:47:54;7.07;;;5.50;;
46489;SDS011;32204;49.160;8.580;2023-04-09T11:50:20;6.60;;;5.90;;
46489;SDS011;32204;49.160;8.580;2023-04-09T11:52:47;6.70;;;5.93;;
46489;SDS011;32204;49.160;8.580;2023-04-09T11:55:23;6.50;;;5.68;;
46489;SDS011;32204;49.160;8.580;2023-04-09T11:57:50;6.55;;;5.20;;
46489;SDS011;32204;49.160;8.580;2023-04-09T12:00:25;7.18;;;5.60;;
46489;SDS011;32204;49.160;8.580;2023-04-09T12:02:58;6.88;;;6.18;;
46489;SDS011;32204;49.160;8.580;2023-04-09T12:05:27;6.13;;;5.53;;
46489;SDS011;32204;49.160;8.580;2023-04-09T12:08:00;7.10;;;6.13;;
46489;SDS011;32204;49.160;8.580;2023-04-09T12:10:32;6.85;;;6.18;;
46489;SDS011;32204;49.160;8.580;2023-04-09T12:13:00;7.25;;;6.13;;
46489;SDS011;32204;49.160;8.580;2023-04-09T12:15:37;7.82;;;6.90;;
46489;SDS011;32204;49.160;8.580;2023-04-09T12:18:08;8.75;;;7.03;;
46489;SDS011;32204;49.160;8.580;2023-04-09T12:20:36;9.95;;;6.63;;
46489;SDS011;32204;49.160;8.580;2023-04-09T12:23:09;6.97;;;5.95;;
46489;SDS011;32204;49.160;8.580;2023-04-09T12:25:36;6.13;;;5.50;;
46489;SDS011;32204;49.160;8.580;2023-04-09T12:28:07;7.25;;;5.82;;
46489;SDS011;32204;49.160;8.580;2023-04-09T12:30:35;7.35;;;6.38;;
46489;SDS011;32204;49.160;8.580;2023-04-09T12:33:01;6.70;;;5.78;;
46489;SDS011;32204;49.160;8.580;2023-04-09T12:35:27;7.00;;;5.85;;
46489;SDS011;32204;49.160;8.580;2023-04-09T12:37:53;6.65;;;5.40;;
46489;SDS011;32204;49.160;8.580;2023-04-09T12:40:19;5.63;;;4.90;;
46489;SDS011;32204;49.160;8.580;2023-04-09T12:42:45;4.60;;;4.10;;
46489;SDS011;32204;49.160;8.580;2023-04-09T12:45:12;5.18;;;4.68;;
46489;SDS011;32204;49.160;8.580;2023-04-09T12:47:39;6.18;;;4.78;;
46489;SDS011;32204;49.160;8.580;2023-04-09T12:50:05;5.07;;;4.55;;
46489;SDS011;32204;49.160;8.580;2023-04-09T12:52:32;5.03;;;4.53;;
46489;SDS011;32204;49.160;8.580;2023-04-09T12:57:27;4.22;;;3.83;;
46489;SDS011;32204;49.160;8.580;2023-04-09T12:59:53;4.80;;;4.35;;
46489;SDS011;32204;49.160;8.580;2023-04-09T13:02:19;6.10;;;4.45;;
46489;SDS011;32204;49.160;8.580;2023-04-09T13:04:45;4.10;;;3.70;;
46489;SDS011;32204;49.160;8.580;2023-04-09T13:07:11;3.15;;;2.85;;
46489;SDS011;32204;49.160;8.580;2023-04-09T13:09:40;3.55;;;3.25;;
46489;SDS011;32204;49.160;8.580;2023-04-09T13:12:05;3.63;;;3.33;;
46489;SDS011;32204;49.160;8.580;2023-04-09T13:14:31;3.80;;;3.50;;
46489;SDS011;32204;49.160;8.580;2023-04-09T13:16:57;3.83;;;3.53;;
46489;SDS011;32204;49.160;8.580;2023-04-09T13:19:23;3.92;;;3.55;;
46489;SDS011;32204;49.160;8.580;2023-04-09T13:21:48;4.03;;;3.47;;
46489;SDS011;32204;49.160;8.580;2023-04-09T13:24:14;2.80;;;2.60;;
46489;SDS011;32204;49.160;8.580;2023-04-09T13:26:39;3.00;;;2.80;;
46489;SDS011;32204;49.160;8.580;2023-04-09T13:29:06;3.38;;;3.08;;
46489;SDS011;32204;49.160;8.580;2023-04-09T13:31:33;3.13;;;2.83;;
46489;SDS011;32204;49.160;8.580;2023-04-09T13:34:00;4.63;;;3.15;;
46489;SDS011;32204;49.160;8.580;2023-04-09T13:36:27;3.42;;;3.13;;
46489;SDS011;32204;49.160;8.580;2023-04-09T13:38:53;3.47;;;3.17;;
46489;SDS011;32204;49.160;8.580;2023-04-09T13:41:18;4.32;;;2.72;;
46489;SDS011;32204;49.160;8.580;2023-04-09T13:43:44;3.75;;;2.90;;
46489;SDS011;32204;49.160;8.580;2023-04-09T13:46:10;2.90;;;2.70;;
46489;SDS011;32204;49.160;8.580;2023-04-09T13:48:36;3.38;;;2.90;;
46489;SDS011;32204;49.160;8.580;2023-04-09T13:51:01;4.88;;;3.10;;
46489;SDS011;32204;49.160;8.580;2023-04-09T13:53:27;3.53;;;3.22;;
46489;SDS011;32204;49.160;8.580;2023-04-09T13:55:53;4.07;;;3.25;;
46489;SDS011;32204;49.160;8.580;2023-04-09T13:58:19;8.45;;;3.60;;
46489;SDS011;32204;49.160;8.580;2023-04-09T14:00:46;3.22;;;3.00;;
46489;SDS011;32204;49.160;8.580;2023-04-09T14:03:12;4.63;;;3.50;;
46489;SDS011;32204;49.160;8.580;2023-04-09T14:05:38;3.90;;;3.15;;
46489;SDS011;32204;49.160;8.580;2023-04-09T14:08:03;3.38;;;3.08;;
46489;SDS011;32204;49.160;8.580;2023-04-09T14:10:29;3.25;;;2.95;;
46489;SDS011;32204;49.160;8.580;2023-04-09T14:12:55;3.25;;;2.95;;
46489;SDS011;32204;49.160;8.580;2023-04-09T14:15:20;3.15;;;2.78;;
46489;SDS011;32204;49.160;8.580;2023-04-09T14:17:46;3.15;;;2.92;;
46489;SDS011;32204;49.160;8.580;2023-04-09T14:20:12;2.45;;;2.25;;
46489;SDS011;32204;49.160;8.580;2023-04-09T14:22:37;3.45;;;3.15;;
46489;SDS011;32204;49.160;8.580;2023-04-09T14:25:03;3.40;;;3.10;;
46489;SDS011;32204;49.160;8.580;2023-04-09T14:27:29;3.45;;;3.08;;
46489;SDS011;32204;49.160;8.580;2023-04-09T14:29:55;3.35;;;3.05;;
46489;SDS011;32204;49.160;8.580;2023-04-09T14:32:21;3.97;;;3.45;;
46489;SDS011;32204;49.160;8.580;2023-04-09T14:34:46;3.25;;;2.95;;
46489;SDS011;32204;49.160;8.580;2023-04-09T14:37:12;3.55;;;3.25;;
46489;SDS011;32204;49.160;8.580;2023-04-09T14:39:38;3.08;;;2.78;;
46489;SDS011;32204;49.160;8.580;2023-04-09T14:42:03;3.22;;;2.92;;
46489;SDS011;32204;49.160;8.580;2023-04-09T14:44:29;3.45;;;3.15;;
46489;SDS011;32204;49.160;8.580;2023-04-09T14:46:55;3.40;;;3.10;;
46489;SDS011;32204;49.160;8.580;2023-04-09T14:49:21;3.53;;;3.22;;
46489;SDS011;32204;49.160;8.580;2023-04-09T14:51:47;3.58;;;3.28;;